Time;durP1;ratioP1;P1;durP2;ratioP2;P2;SDS_P1;SDS_P2;PMS_P1;PMS_P2;Temp;Humidity;BMP_temperature;BMP_pressure;BME280_temperature;BME280_humidity;BME280_pressure;Samples;Min_cycle;Max_cycle;Signal;HPM_P1;HPM_P2
2023/01/08 00:00:12;;;;;;;;;;;9.60;99.90;;;;;;4955197;28;208855;-68
2023/01/08 00:02:38;;;;;;;;;;;9.60;99.90;;;;;;5034016;28;19921;-68
2023/01/08 00:05:05;;;;;;;;;;;9.60;99.90;;;;;;4946639;28;111551;-70
2023/01/08 00:07:34;;;;;;;;;;;9.50;99.90;;;;;;5020511;28;19928;-67
2023/01/08 00:10:00;;;;;;;;;;;9.50;99.90;;;;;;4958340;28;274368;-69
2023/01/08 00:12:30;;;;;;;;;;;9.50;99.90;;;;;;5009811;28;19950;-68
2023/01/08 00:14:57;;;;;;;;;;;9.50;99.90;;;;;;4950952;28;267051;-68
2023/01/08 00:17:24;;;;;;;;;;;9.50;99.90;;;;;;5012043;28;19932;-68
2023/01/08 00:19:50;;;;;;;;;;;9.60;99.90;;;;;;4972161;28;207489;-68
2023/01/08 00:22:22;;;;;;;;;;;9.60;99.90;;;;;;5018309;28;19925;-68
2023/01/08 00:24:48;;;;;;;;;;;9.60;99.90;;;;;;4951952;28;206729;-69
2023/01/08 00:27:18;;;;;;;;;;;9.60;99.90;;;;;;4996182;28;19925;-68
2023/01/08 00:29:48;;;;;;;;;;;9.60;99.90;;;;;;4973229;28;105287;-67
2023/01/08 00:32:14;;;;;;;;;;;9.60;99.90;;;;;;5023412;28;19922;-68
2023/01/08 00:34:43;;;;;;;;;;;9.60;99.90;;;;;;4961291;28;211833;-68
2023/01/08 00:37:09;;;;;;;;;;;9.60;99.90;;;;;;5025986;28;20294;-67
2023/01/08 00:39:35;;;;;;;;;;;9.60;99.90;;;;;;4969765;28;414418;-69
2023/01/08 00:42:02;;;;;;;;;;;9.70;99.90;;;;;;4998293;28;19929;-69
2023/01/08 00:44:28;;;;;;;;;;;9.70;99.90;;;;;;4976895;28;115070;-69
2023/01/08 00:46:54;;;;;;;;;;;9.70;99.90;;;;;;5031864;28;19929;-68
2023/01/08 00:49:20;;;;;;;;;;;9.70;99.90;;;;;;4973956;28;115250;-68
2023/01/08 00:51:47;;;;;;;;;;;9.70;99.90;;;;;;5022526;28;19940;-68
2023/01/08 00:54:16;;;;;;;;;;;9.70;99.90;;;;;;4981172;28;270639;-69
2023/01/08 00:56:42;;;;;;;;;;;9.70;99.90;;;;;;5000379;28;19920;-67
2023/01/08 00:59:08;;;;;;;;;;;9.70;99.90;;;;;;4975433;28;283135;-69
2023/01/08 01:01:35;;;;;;;;;;;9.70;99.90;;;;;;4987894;28;19947;-69
2023/01/08 01:04:01;;;;;;;;;;;9.60;99.90;;;;;;4998437;28;305852;-67
2023/01/08 01:06:27;;;;;;;;;;;9.50;99.90;;;;;;4980300;28;20653;-68
2023/01/08 01:08:53;;;;;;;;;;;9.50;99.90;;;;;;5009855;28;255094;-68
2023/01/08 01:11:21;;;;;;;;;;;9.40;99.90;;;;;;4987553;28;206670;-68
2023/01/08 01:13:48;;;;;;;;;;;9.40;99.90;;;;;;5031259;28;19929;-68
2023/01/08 01:16:14;;;;;;;;;;;9.30;99.90;;;;;;4934270;28;310731;-68
2023/01/08 01:18:44;;;;;;;;;;;9.40;99.90;;;;;;5040706;28;19929;-69
2023/01/08 01:21:11;;;;;;;;;;;9.40;99.90;;;;;;4965266;28;110675;-68
2023/01/08 01:23:38;;;;;;;;;;;9.40;99.90;;;;;;5041326;28;20421;-68
2023/01/08 01:26:04;;;;;;;;;;;9.40;99.90;;;;;;4948432;28;240412;-67
2023/01/08 01:28:30;;;;;;;;;;;9.40;99.90;;;;;;5032896;28;20306;-69
2023/01/08 01:31:23;;;;;;;;;;;9.40;99.90;;;;;;4937684;28;275702;-68
2023/01/08 01:33:50;;;;;;;;;;;9.40;99.90;;;;;;5041426;28;19932;-68
2023/01/08 01:36:17;;;;;;;;;;;9.40;99.90;;;;;;4945346;28;153732;-67
2023/01/08 01:38:45;;;;;;;;;;;9.40;99.90;;;;;;5028572;28;20303;-68
2023/01/08 01:41:31;;;;;;;;;;;9.40;99.90;;;;;;4939106;28;234562;-68
2023/01/08 01:44:20;;;;;;;;;;;9.40;99.90;;;;;;5006306;28;111790;-69
2023/01/08 01:46:55;;;;;;;;;;;9.30;99.90;;;;;;4981933;28;292254;-69
2023/01/08 01:49:22;;;;;;;;;;;9.30;99.90;;;;;;4967282;28;227592;-69
2023/01/08 01:51:54;;;;;;;;;;;9.30;99.90;;;;;;5016439;28;20587;-68
2023/01/08 01:54:21;;;;;;;;;;;9.30;99.90;;;;;;4976455;28;206638;-69
2023/01/08 01:56:50;;;;;;;;;;;9.20;99.90;;;;;;5017048;28;19922;-68
2023/01/08 01:59:17;;;;;;;;;;;9.20;99.90;;;;;;4976064;28;215125;-69
2023/01/08 02:01:43;;;;;;;;;;;9.10;99.90;;;;;;5028813;28;20275;-69
2023/01/08 02:04:12;;;;;;;;;;;9.10;99.90;;;;;;4968861;28;203983;-69
2023/01/08 02:06:56;;;;;;;;;;;9.10;99.90;;;;;;4981802;28;19929;-69
2023/01/08 02:09:25;;;;;;;;;;;9.00;99.90;;;;;;4963307;28;209409;-69
2023/01/08 02:12:17;;;;;;;;;;;9.00;99.90;;;;;;4991208;28;20397;-69
2023/01/08 02:14:59;;;;;;;;;;;9.00;99.90;;;;;;4932997;28;1021679;-68
2023/01/08 02:17:33;;;;;;;;;;;9.00;99.90;;;;;;5019498;28;19940;-68
2023/01/08 02:20:11;;;;;;;;;;;8.90;99.90;;;;;;4964856;28;290784;-68
2023/01/08 02:22:41;;;;;;;;;;;8.80;99.90;;;;;;5011457;28;19928;-68
2023/01/08 02:25:07;;;;;;;;;;;8.80;99.90;;;;;;4970386;28;240086;-68
2023/01/08 02:27:35;;;;;;;;;;;8.80;99.90;;;;;;5015949;28;19927;-67
2023/01/08 02:30:02;;;;;;;;;;;8.70;99.90;;;;;;4943855;28;208661;-68
2023/01/08 02:32:33;;;;;;;;;;;8.80;99.90;;;;;;5001772;28;20428;-67
2023/01/08 02:34:59;;;;;;;;;;;8.70;99.90;;;;;;4953128;28;242013;-67
2023/01/08 02:37:25;;;;;;;;;;;8.70;99.90;;;;;;5016436;28;19936;-68
2023/01/08 02:40:03;;;;;;;;;;;8.70;99.90;;;;;;4972463;28;240947;-68
2023/01/08 02:42:32;;;;;;;;;;;8.70;99.90;;;;;;5033499;28;19948;-68
2023/01/08 02:45:01;;;;;;;;;;;8.70;99.90;;;;;;4955878;28;232712;-68
2023/01/08 02:47:40;;;;;;;;;;;8.60;99.90;;;;;;5023191;28;20313;-68
2023/01/08 02:50:11;;;;;;;;;;;8.50;99.90;;;;;;4966008;28;247418;-68
2023/01/08 02:52:43;;;;;;;;;;;8.50;99.90;;;;;;5026646;28;19925;-69
2023/01/08 02:55:10;;;;;;;;;;;8.50;99.90;;;;;;4932003;28;203062;-68
2023/01/08 02:57:37;;;;;;;;;;;8.50;99.90;;;;;;5021223;28;20022;-68
2023/01/08 03:00:04;;;;;;;;;;;8.50;99.90;;;;;;4944942;28;195936;-68
2023/01/08 03:02:32;;;;;;;;;;;8.50;99.90;;;;;;5025070;28;19931;-67
2023/01/08 03:05:02;;;;;;;;;;;8.50;99.90;;;;;;4934878;28;209676;-69
2023/01/08 03:07:28;;;;;;;;;;;8.50;99.90;;;;;;5017863;28;19924;-68
2023/01/08 03:09:55;;;;;;;;;;;8.50;99.90;;;;;;4972422;28;207447;-68
2023/01/08 03:12:23;;;;;;;;;;;8.40;99.90;;;;;;5022269;28;20270;-68
2023/01/08 03:14:53;;;;;;;;;;;8.40;99.90;;;;;;4942986;28;210409;-67
2023/01/08 03:17:25;;;;;;;;;;;8.40;99.90;;;;;;5021208;28;19928;-68
2023/01/08 03:19:56;;;;;;;;;;;8.40;99.90;;;;;;4947853;28;304430;-68
2023/01/08 03:22:23;;;;;;;;;;;8.40;99.90;;;;;;5017991;28;19925;-67
2023/01/08 03:24:51;;;;;;;;;;;8.40;99.90;;;;;;4941295;28;310280;-68
2023/01/08 03:27:20;;;;;;;;;;;8.30;99.90;;;;;;5020613;28;19948;-68
2023/01/08 03:29:48;;;;;;;;;;;8.30;99.90;;;;;;4956033;28;279674;-67
2023/01/08 03:32:16;;;;;;;;;;;8.30;99.90;;;;;;4985960;28;19928;-68
2023/01/08 03:34:43;;;;;;;;;;;8.30;99.90;;;;;;4965323;28;209818;-69
2023/01/08 03:37:10;;;;;;;;;;;8.30;99.90;;;;;;5035948;28;19925;-68
2023/01/08 03:39:42;;;;;;;;;;;8.20;99.90;;;;;;4972809;28;298276;-69
2023/01/08 03:42:10;;;;;;;;;;;8.20;99.90;;;;;;5026481;28;20413;-66
2023/01/08 03:44:37;;;;;;;;;;;8.20;99.90;;;;;;4952926;28;205858;-68
2023/01/08 03:47:04;;;;;;;;;;;8.20;99.90;;;;;;5016488;28;19925;-67
2023/01/08 03:49:30;;;;;;;;;;;8.20;99.90;;;;;;4976232;28;311538;-68
2023/01/08 03:51:56;;;;;;;;;;;8.20;99.90;;;;;;5010692;28;19947;-69
2023/01/08 03:54:24;;;;;;;;;;;8.20;99.90;;;;;;4954938;28;294430;-69
2023/01/08 03:56:50;;;;;;;;;;;8.30;99.90;;;;;;4995067;28;19925;-69
2023/01/08 03:59:17;;;;;;;;;;;8.30;99.90;;;;;;4971620;28;209600;-69
2023/01/08 04:01:43;;;;;;;;;;;8.30;99.90;;;;;;4996635;28;19928;-68
2023/01/08 04:04:09;;;;;;;;;;;8.30;99.90;;;;;;4971490;28;296742;-68
2023/01/08 04:06:36;;;;;;;;;;;8.30;99.90;;;;;;4986394;28;19943;-67
2023/01/08 04:09:05;;;;;;;;;;;8.30;99.90;;;;;;4968397;28;302834;-67
2023/01/08 04:11:31;;;;;;;;;;;8.30;99.90;;;;;;5013364;28;19924;-69
2023/01/08 04:13:58;;;;;;;;;;;8.20;99.90;;;;;;5005026;28;207166;-69
2023/01/08 04:16:24;;;;;;;;;;;8.30;99.90;;;;;;4974777;28;133003;-69
2023/01/08 04:18:51;;;;;;;;;;;8.30;99.90;;;;;;5028666;28;19936;-69
2023/01/08 04:21:17;;;;;;;;;;;8.30;99.90;;;;;;4976245;28;209210;-68
2023/01/08 04:23:44;;;;;;;;;;;8.30;99.90;;;;;;5025362;28;19930;-67
2023/01/08 04:26:10;;;;;;;;;;;8.30;99.90;;;;;;4941393;28;167350;-69
2023/01/08 04:28:39;;;;;;;;;;;8.30;99.90;;;;;;5032299;28;19928;-68
2023/01/08 04:31:06;;;;;;;;;;;8.30;99.90;;;;;;4968967;28;225609;-68
2023/01/08 04:33:32;;;;;;;;;;;8.40;99.90;;;;;;5028314;28;19940;-67
2023/01/08 04:35:58;;;;;;;;;;;8.40;99.90;;;;;;4920057;28;229833;-68
2023/01/08 04:38:24;;;;;;;;;;;8.40;99.90;;;;;;5038727;28;20321;-69
2023/01/08 04:40:58;;;;;;;;;;;8.50;99.90;;;;;;4947200;28;420610;-67
2023/01/08 04:43:24;;;;;;;;;;;8.50;99.90;;;;;;5022252;28;19928;-66
2023/01/08 04:45:50;;;;;;;;;;;8.50;99.90;;;;;;4929401;28;311881;-68
2023/01/08 04:48:17;;;;;;;;;;;8.50;99.90;;;;;;5041739;28;19921;-68
2023/01/08 04:50:43;;;;;;;;;;;8.50;99.90;;;;;;4942331;28;175756;-67
2023/01/08 04:53:17;;;;;;;;;;;8.50;99.90;;;;;;5015146;28;19928;-67
2023/01/08 04:55:43;;;;;;;;;;;8.50;99.90;;;;;;4972092;28;309341;-69
2023/01/08 04:58:09;;;;;;;;;;;8.60;99.90;;;;;;5028260;28;19921;-66
2023/01/08 05:00:37;;;;;;;;;;;8.50;99.90;;;;;;4952662;28;162427;-68
2023/01/08 05:03:03;;;;;;;;;;;8.60;99.90;;;;;;5032131;28;19936;-68
2023/01/08 05:05:29;;;;;;;;;;;8.60;99.90;;;;;;4971219;28;206073;-68
2023/01/08 05:07:55;;;;;;;;;;;8.60;99.90;;;;;;5040928;28;19924;-69
2023/01/08 05:10:22;;;;;;;;;;;8.60;99.90;;;;;;4959636;28;225391;-70
2023/01/08 05:12:48;;;;;;;;;;;8.60;99.90;;;;;;5018406;28;19979;-68
2023/01/08 05:15:17;;;;;;;;;;;8.50;99.90;;;;;;4961180;28;220427;-68
2023/01/08 05:17:44;;;;;;;;;;;8.50;99.90;;;;;;5034396;28;19932;-68
2023/01/08 05:20:10;;;;;;;;;;;8.60;99.90;;;;;;4950722;28;310493;-69
2023/01/08 05:22:36;;;;;;;;;;;8.60;99.90;;;;;;5028513;28;19925;-68
2023/01/08 05:25:03;;;;;;;;;;;8.60;99.90;;;;;;4957071;28;266054;-68
2023/01/08 05:27:29;;;;;;;;;;;8.60;99.90;;;;;;5005436;28;19925;-67
2023/01/08 05:29:55;;;;;;;;;;;8.60;99.90;;;;;;4988556;28;209617;-69
2023/01/08 05:32:21;;;;;;;;;;;8.60;99.90;;;;;;5035998;28;19936;-68
2023/01/08 05:34:47;;;;;;;;;;;8.50;99.90;;;;;;4969870;28;395533;-68
2023/01/08 05:37:17;;;;;;;;;;;8.50;99.90;;;;;;5006136;28;20302;-68
2023/01/08 05:39:43;;;;;;;;;;;8.50;99.90;;;;;;4971933;28;206159;-68
2023/01/08 05:42:09;;;;;;;;;;;8.50;99.90;;;;;;5009199;28;19929;-69
2023/01/08 05:44:36;;;;;;;;;;;8.50;99.90;;;;;;4983064;28;207922;-69
2023/01/08 05:47:02;;;;;;;;;;;8.50;99.90;;;;;;5012638;28;19925;-68
2023/01/08 05:49:28;;;;;;;;;;;8.50;99.90;;;;;;4971108;28;281849;-68
2023/01/08 05:51:57;;;;;;;;;;;8.50;99.90;;;;;;5019851;28;19920;-68
2023/01/08 05:54:23;;;;;;;;;;;8.50;99.90;;;;;;4982594;28;127146;-70
2023/01/08 05:56:49;;;;;;;;;;;8.50;99.90;;;;;;4997086;28;19948;-69
2023/01/08 05:59:15;;;;;;;;;;;8.50;99.90;;;;;;4972778;28;309621;-70
2023/01/08 06:01:41;;;;;;;;;;;8.40;99.90;;;;;;5024456;28;20393;-67
2023/01/08 06:04:08;;;;;;;;;;;8.40;99.90;;;;;;4955424;28;310532;-69
2023/01/08 06:06:34;;;;;;;;;;;8.40;99.90;;;;;;5011545;28;19936;-69
2023/01/08 06:09:00;;;;;;;;;;;8.40;99.90;;;;;;4975859;28;310669;-69
2023/01/08 06:11:26;;;;;;;;;;;8.40;99.90;;;;;;4995795;28;209398;-68
2023/01/08 06:13:52;;;;;;;;;;;8.40;99.90;;;;;;5027339;28;222168;-68
2023/01/08 06:16:19;;;;;;;;;;;8.40;99.90;;;;;;4964083;28;208456;-67
2023/01/08 06:18:45;;;;;;;;;;;8.40;99.90;;;;;;5042697;28;19929;-68
2023/01/08 06:21:12;;;;;;;;;;;8.40;99.90;;;;;;4954509;28;248154;-68
2023/01/08 06:23:38;;;;;;;;;;;8.40;99.90;;;;;;5014297;28;20729;-68
2023/01/08 06:26:04;;;;;;;;;;;8.30;99.90;;;;;;4963184;28;333613;-68
2023/01/08 06:28:31;;;;;;;;;;;8.30;99.90;;;;;;5042245;28;19929;-68
2023/01/08 06:30:58;;;;;;;;;;;8.30;99.90;;;;;;4943970;28;309165;-69
2023/01/08 06:33:24;;;;;;;;;;;8.30;99.90;;;;;;5038725;28;19929;-66
2023/01/08 06:35:49;;;;;;;;;;;8.20;99.90;;;;;;4972877;28;306040;-69
2023/01/08 06:38:19;;;;;;;;;;;8.20;99.90;;;;;;5030041;28;19960;-68
2023/01/08 06:40:46;;;;;;;;;;;8.20;99.90;;;;;;4954828;28;196419;-68
2023/01/08 06:43:12;;;;;;;;;;;8.20;99.90;;;;;;5017407;28;19925;-69
2023/01/08 06:45:38;;;;;;;;;;;8.10;99.90;;;;;;4947023;28;408023;-69
2023/01/08 06:48:05;;;;;;;;;;;8.10;99.90;;;;;;5037496;28;19924;-69
2023/01/08 06:50:32;;;;;;;;;;;8.10;99.90;;;;;;4939235;28;330041;-69
2023/01/08 06:52:58;;;;;;;;;;;8.10;99.90;;;;;;5027528;28;19935;-68
2023/01/08 06:55:25;;;;;;;;;;;8.10;99.90;;;;;;4968902;28;253515;-69
2023/01/08 06:57:54;;;;;;;;;;;8.10;99.90;;;;;;5035862;28;19928;-69
2023/01/08 07:00:22;;;;;;;;;;;8.10;99.90;;;;;;4938808;28;162198;-69
2023/01/08 07:02:55;;;;;;;;;;;8.10;99.90;;;;;;5037627;28;19947;-68
2023/01/08 07:05:22;;;;;;;;;;;8.10;99.90;;;;;;4964083;28;199946;-67
2023/01/08 07:07:48;;;;;;;;;;;8.10;99.90;;;;;;5041181;28;19920;-69
2023/01/08 07:10:15;;;;;;;;;;;8.10;99.90;;;;;;4973155;28;273719;-69
2023/01/08 07:12:41;;;;;;;;;;;8.10;99.90;;;;;;5032942;28;20051;-69
2023/01/08 07:15:20;;;;;;;;;;;8.10;99.90;;;;;;4949683;28;319221;-71
2023/01/08 07:17:49;;;;;;;;;;;8.00;99.90;;;;;;5022118;28;19920;-70
2023/01/08 07:20:15;;;;;;;;;;;8.00;99.90;;;;;;4976336;28;309462;-72
2023/01/08 07:22:48;;;;;;;;;;;8.00;99.90;;;;;;5044249;28;19921;-69
2023/01/08 07:25:19;;;;;;;;;;;7.90;99.90;;;;;;4964120;28;484567;-69
2023/01/08 07:27:47;;;;;;;;;;;7.90;99.90;;;;;;5036512;28;19925;-69
2023/01/08 07:30:14;;;;;;;;;;;7.80;99.90;;;;;;4974156;28;313317;-69
2023/01/08 07:32:40;;;;;;;;;;;7.90;99.90;;;;;;5031054;28;19928;-69
2023/01/08 07:35:07;;;;;;;;;;;7.80;99.90;;;;;;4948754;28;278800;-70
2023/01/08 07:37:33;;;;;;;;;;;7.80;99.90;;;;;;4990076;28;19936;-68
2023/01/08 07:40:00;;;;;;;;;;;7.80;99.90;;;;;;4968595;28;209801;-70
2023/01/08 07:42:26;;;;;;;;;;;7.70;99.90;;;;;;5015877;28;19948;-68
2023/01/08 07:44:51;;;;;;;;;;;7.70;99.90;;;;;;4874074;28;2975541;-68
2023/01/08 07:47:21;;;;;;;;;;;7.70;99.90;;;;;;5028019;28;20002;-69
2023/01/08 07:49:50;;;;;;;;;;;7.70;99.90;;;;;;4940134;28;402492;-67
2023/01/08 07:52:18;;;;;;;;;;;7.60;99.90;;;;;;5014621;28;20342;-70
2023/01/08 07:54:44;;;;;;;;;;;7.60;99.90;;;;;;4940508;28;306164;-70
2023/01/08 07:57:10;;;;;;;;;;;7.60;99.90;;;;;;4981889;28;19929;-68
2023/01/08 07:59:36;;;;;;;;;;;7.60;99.90;;;;;;4973263;28;207589;-69
2023/01/08 08:02:02;;;;;;;;;;;7.60;99.90;;;;;;5030382;28;19928;-68
2023/01/08 08:04:28;;;;;;;;;;;7.60;99.90;;;;;;4953787;28;116678;-67
2023/01/08 08:06:54;;;;;;;;;;;7.60;99.90;;;;;;5010839;28;19935;-67
2023/01/08 08:09:20;;;;;;;;;;;7.60;99.90;;;;;;4977907;28;212809;-67
2023/01/08 08:11:46;;;;;;;;;;;7.60;99.90;;;;;;5025397;28;19959;-67
2023/01/08 08:14:12;;;;;;;;;;;7.60;99.90;;;;;;4968932;28;206935;-68
2023/01/08 08:16:38;;;;;;;;;;;7.60;99.90;;;;;;5004370;28;20012;-68
2023/01/08 08:19:03;;;;;;;;;;;7.50;99.90;;;;;;4965037;28;209295;-69
2023/01/08 08:21:30;;;;;;;;;;;7.50;99.90;;;;;;5004514;28;20856;-70
2023/01/08 08:23:56;;;;;;;;;;;7.50;99.90;;;;;;5020518;28;234228;-68
2023/01/08 08:26:22;;;;;;;;;;;7.50;99.90;;;;;;4948151;28;114219;-69
2023/01/08 08:28:48;;;;;;;;;;;7.50;99.90;;;;;;5015869;28;20405;-67
2023/01/08 08:31:14;;;;;;;;;;;7.50;99.90;;;;;;4943552;28;61066;-69
2023/01/08 08:33:40;;;;;;;;;;;7.50;99.90;;;;;;5017798;28;19925;-68
2023/01/08 08:36:07;;;;;;;;;;;7.50;99.90;;;;;;4959949;28;216010;-69
2023/01/08 08:38:33;;;;;;;;;;;7.50;99.90;;;;;;5031673;28;19932;-69
2023/01/08 08:40:59;;;;;;;;;;;7.50;99.90;;;;;;4963411;28;213915;-69
2023/01/08 08:43:25;;;;;;;;;;;7.50;99.90;;;;;;5029582;28;19925;-69
2023/01/08 08:45:51;;;;;;;;;;;7.50;99.90;;;;;;4955320;28;206837;-64
2023/01/08 08:48:16;;;;;;;;;;;7.50;99.90;;;;;;5028508;28;19931;-68
2023/01/08 08:50:43;;;;;;;;;;;7.60;99.90;;;;;;4953843;28;176913;-69
2023/01/08 08:53:12;;;;;;;;;;;7.60;99.90;;;;;;5022386;28;19947;-69
2023/01/08 08:55:38;;;;;;;;;;;7.60;99.90;;;;;;4975596;28;68909;-69
2023/01/08 08:58:06;;;;;;;;;;;7.60;99.90;;;;;;5030213;28;19931;-68
2023/01/08 09:00:32;;;;;;;;;;;7.60;99.90;;;;;;4949368;28;80743;-68
2023/01/08 09:02:58;;;;;;;;;;;7.60;99.90;;;;;;5028577;28;20000;-69
2023/01/08 09:05:24;;;;;;;;;;;7.60;99.90;;;;;;4898892;28;1481911;-69
2023/01/08 09:07:50;;;;;;;;;;;7.60;99.90;;;;;;5030684;28;19928;-69
2023/01/08 09:10:16;;;;;;;;;;;7.70;99.90;;;;;;4970221;28;206769;-69
2023/01/08 09:12:42;;;;;;;;;;;7.70;99.90;;;;;;5027572;28;19928;-69
2023/01/08 09:15:08;;;;;;;;;;;7.70;99.90;;;;;;4959560;28;442042;-70
2023/01/08 09:17:35;;;;;;;;;;;7.70;99.90;;;;;;5022249;28;19928;-70
2023/01/08 09:20:02;;;;;;;;;;;7.70;99.90;;;;;;4980932;28;217497;-70
2023/01/08 09:22:28;;;;;;;;;;;7.70;99.90;;;;;;5015142;28;20030;-68
2023/01/08 09:24:54;;;;;;;;;;;7.80;99.90;;;;;;4981557;28;207189;-68
2023/01/08 09:27:20;;;;;;;;;;;7.70;99.90;;;;;;5019235;28;20416;-69
2023/01/08 09:29:45;;;;;;;;;;;7.80;99.90;;;;;;4969577;28;245422;-69
2023/01/08 09:32:11;;;;;;;;;;;7.80;99.90;;;;;;5027857;28;19951;-69
2023/01/08 09:34:37;;;;;;;;;;;7.80;99.90;;;;;;4966849;28;208460;-69
2023/01/08 09:37:04;;;;;;;;;;;7.90;99.90;;;;;;5011013;28;19946;-69
2023/01/08 09:39:30;;;;;;;;;;;7.90;99.90;;;;;;4980241;28;171172;-69
2023/01/08 09:41:57;;;;;;;;;;;7.90;99.90;;;;;;5007138;28;20278;-69
2023/01/08 09:44:26;;;;;;;;;;;7.90;99.90;;;;;;4979921;28;215414;-69
2023/01/08 09:46:54;;;;;;;;;;;7.90;99.90;;;;;;5001129;28;20024;-70
2023/01/08 09:49:27;;;;;;;;;;;8.00;99.90;;;;;;4981122;28;208715;-68
2023/01/08 09:51:53;;;;;;;;;;;8.00;99.90;;;;;;5020161;28;20283;-68
2023/01/08 09:54:22;;;;;;;;;;;8.00;99.90;;;;;;4973460;28;226727;-68
2023/01/08 09:56:48;;;;;;;;;;;8.00;99.90;;;;;;5009207;28;19932;-69
2023/01/08 09:59:16;;;;;;;;;;;8.00;99.90;;;;;;4970570;28;210297;-70
2023/01/08 10:01:43;;;;;;;;;;;8.00;99.90;;;;;;5017372;28;19925;-69
2023/01/08 10:04:14;;;;;;;;;;;8.10;99.90;;;;;;4945426;28;242960;-69
2023/01/08 10:06:40;;;;;;;;;;;8.10;99.90;;;;;;5020933;28;20207;-69
2023/01/08 10:09:11;;;;;;;;;;;8.10;99.90;;;;;;4994919;28;130595;-69
2023/01/08 10:11:39;;;;;;;;;;;8.10;99.90;;;;;;4980472;28;19921;-70
2023/01/08 10:14:12;;;;;;;;;;;8.10;99.90;;;;;;4973287;28;212298;-69
2023/01/08 10:16:40;;;;;;;;;;;8.20;99.90;;;;;;5009669;28;19921;-68
2023/01/08 10:19:08;;;;;;;;;;;8.20;99.90;;;;;;4971202;28;210385;-71
2023/01/08 10:21:39;;;;;;;;;;;8.20;99.90;;;;;;4988766;28;19929;-70
2023/01/08 10:24:05;;;;;;;;;;;8.20;99.90;;;;;;4985661;28;209322;-69
2023/01/08 10:26:35;;;;;;;;;;;8.30;99.90;;;;;;5009380;28;19925;-69
2023/01/08 10:29:06;;;;;;;;;;;8.30;99.90;;;;;;5000366;28;207602;-68
2023/01/08 10:31:33;;;;;;;;;;;8.30;99.90;;;;;;4982485;28;194296;-69
2023/01/08 10:34:08;;;;;;;;;;;8.40;99.90;;;;;;4990384;28;219365;-70
2023/01/08 10:36:37;;;;;;;;;;;8.40;99.90;;;;;;4992734;28;19925;-69
2023/01/08 10:39:04;;;;;;;;;;;8.40;99.90;;;;;;4980211;28;209582;-69
2023/01/08 10:41:31;;;;;;;;;;;8.50;99.90;;;;;;4990682;28;19933;-70
2023/01/08 10:44:01;;;;;;;;;;;8.50;99.90;;;;;;5016630;28;207022;-69
2023/01/08 10:46:30;;;;;;;;;;;8.50;99.90;;;;;;4962207;28;207560;-68
2023/01/08 10:48:59;;;;;;;;;;;8.50;99.90;;;;;;5000408;28;215820;-68
2023/01/08 10:51:28;;;;;;;;;;;8.50;99.90;;;;;;4990382;28;19920;-68
2023/01/08 10:53:55;;;;;;;;;;;8.60;99.90;;;;;;5040976;28;211442;-67
2023/01/08 10:56:22;;;;;;;;;;;8.60;99.90;;;;;;4976696;28;48782;-69
2023/01/08 10:58:48;;;;;;;;;;;8.50;99.90;;;;;;5016451;28;20391;-68
2023/01/08 11:01:25;;;;;;;;;;;8.50;99.90;;;;;;4957979;28;181130;-69
2023/01/08 11:03:52;;;;;;;;;;;8.60;99.90;;;;;;5022475;28;19925;-69
2023/01/08 11:06:23;;;;;;;;;;;8.60;99.90;;;;;;4932444;28;146587;-67
2023/01/08 11:08:53;;;;;;;;;;;8.60;99.90;;;;;;5034711;28;19921;-68
2023/01/08 11:11:19;;;;;;;;;;;8.70;99.90;;;;;;4933234;28;239587;-68
2023/01/08 11:14:05;;;;;;;;;;;8.70;99.90;;;;;;5030459;28;19924;-68
2023/01/08 11:16:32;;;;;;;;;;;8.70;99.90;;;;;;4960955;28;205361;-68
2023/01/08 11:18:58;;;;;;;;;;;8.70;99.90;;;;;;5001057;28;245586;-68
2023/01/08 11:21:29;;;;;;;;;;;8.80;99.90;;;;;;5001042;28;31703;-69
2023/01/08 11:24:15;;;;;;;;;;;8.80;99.90;;;;;;5015622;28;208455;-68
2023/01/08 11:26:44;;;;;;;;;;;8.70;99.90;;;;;;4937347;28;206490;-67
2023/01/08 11:29:14;;;;;;;;;;;8.80;99.90;;;;;;4966963;28;234767;-70
2023/01/08 11:31:50;;;;;;;;;;;8.90;99.90;;;;;;5011966;28;19925;-68
2023/01/08 11:34:18;;;;;;;;;;;8.90;99.90;;;;;;4978634;28;225072;-68
2023/01/08 11:36:48;;;;;;;;;;;9.10;99.90;;;;;;5017179;28;20432;-69
2023/01/08 11:39:13;;;;;;;;;;;9.10;99.90;;;;;;4964054;28;253439;-68
2023/01/08 11:41:54;;;;;;;;;;;9.10;99.90;;;;;;5004727;28;20002;-68
2023/01/08 11:44:32;;;;;;;;;;;9.10;99.90;;;;;;4976865;28;219644;-71
2023/01/08 11:46:58;;;;;;;;;;;9.10;99.90;;;;;;5007991;28;19932;-71
2023/01/08 11:49:26;;;;;;;;;;;9.10;99.90;;;;;;4972543;28;208200;-72
2023/01/08 11:52:08;;;;;;;;;;;9.20;99.90;;;;;;4990434;28;20418;-71
2023/01/08 11:54:37;;;;;;;;;;;9.10;99.90;;;;;;4974932;28;209589;-71
2023/01/08 11:57:12;;;;;;;;;;;9.10;99.90;;;;;;5000170;28;19928;-71
2023/01/08 11:59:44;;;;;;;;;;;9.10;99.90;;;;;;4967685;28;151283;-70
2023/01/08 12:02:33;;;;;;;;;;;9.10;99.90;;;;;;5024083;28;19929;-70
2023/01/08 12:04:59;;;;;;;;;;;9.10;99.90;;;;;;4941292;28;206238;-70
2023/01/08 12:07:46;;;;;;;;;;;9.10;99.90;;;;;;5012661;28;19947;-70
2023/01/08 12:10:24;;;;;;;;;;;9.20;99.90;;;;;;4951199;28;212935;-71
2023/01/08 12:12:58;;;;;;;;;;;9.30;99.90;;;;;;5002068;28;19924;-72
2023/01/08 12:15:31;;;;;;;;;;;9.30;99.90;;;;;;4969777;28;226421;-69
2023/01/08 12:18:16;;;;;;;;;;;9.30;99.90;;;;;;5027252;28;19940;-71
2023/01/08 12:21:01;;;;;;;;;;;9.30;99.90;;;;;;4949877;28;205909;-70
2023/01/08 12:23:26;;;;;;;;;;;9.40;99.90;;;;;;5021772;28;19945;-71
2023/01/08 12:25:59;;;;;;;;;;;10.50;99.90;;;;;;4937283;28;211673;-70
2023/01/08 12:28:37;;;;;;;;;;;10.20;99.90;;;;;;5036066;28;20305;-71
2023/01/08 12:31:12;;;;;;;;;;;9.90;99.90;;;;;;4955391;28;253754;-71
2023/01/08 12:33:41;;;;;;;;;;;10.20;99.90;;;;;;5036785;28;19932;-70
2023/01/08 12:36:08;;;;;;;;;;;10.40;99.90;;;;;;4953481;28;206862;-71
2023/01/08 12:38:36;;;;;;;;;;;10.60;99.90;;;;;;5038807;28;19929;-70
2023/01/08 12:41:08;;;;;;;;;;;11.10;99.90;;;;;;4976073;28;210016;-70
2023/01/08 12:43:42;;;;;;;;;;;11.90;99.90;;;;;;5039154;28;19924;-71
2023/01/08 12:46:10;;;;;;;;;;;11.60;99.90;;;;;;4949748;28;210684;-71
2023/01/08 12:48:38;;;;;;;;;;;12.90;99.90;;;;;;5039265;28;19924;-70
2023/01/08 12:51:16;;;;;;;;;;;13.30;99.90;;;;;;5038356;28;20592;-71
2023/01/08 12:53:48;;;;;;;;;;;13.00;99.90;;;;;;5031336;28;19928;-71
2023/01/08 12:56:38;;;;;;;;;;;12.30;99.90;;;;;;5035509;28;19995;-70
2023/01/08 12:59:22;;;;;;;;;;;11.90;99.90;;;;;;4975756;28;234709;-70
2023/01/08 13:01:51;;;;;;;;;;;12.10;99.90;;;;;;4996146;28;19929;-71
2023/01/08 13:04:17;;;;;;;;;;;11.80;99.90;;;;;;4960217;28;205885;-71
2023/01/08 13:06:51;;;;;;;;;;;12.60;99.90;;;;;;5007300;28;19936;-71
2023/01/08 13:09:22;;;;;;;;;;;13.30;99.90;;;;;;4967010;28;204903;-72
2023/01/08 13:11:52;;;;;;;;;;;14.00;99.90;;;;;;5000477;28;19940;-68
2023/01/08 13:14:18;;;;;;;;;;;14.90;99.90;;;;;;4946427;28;207681;-69
2023/01/08 13:16:45;;;;;;;;;;;15.30;99.90;;;;;;5005111;28;19968;-68
2023/01/08 13:19:40;;;;;;;;;;;15.50;99.90;;;;;;4970528;28;216653;-68
2023/01/08 13:22:20;;;;;;;;;;;15.50;99.90;;;;;;5012217;28;20310;-68
2023/01/08 13:24:46;;;;;;;;;;;15.30;99.90;;;;;;4976254;28;236932;-68
2023/01/08 13:27:15;;;;;;;;;;;15.30;99.90;;;;;;5025743;28;20407;-67
2023/01/08 13:29:41;;;;;;;;;;;15.60;99.90;;;;;;4975433;28;210371;-68
2023/01/08 13:32:26;;;;;;;;;;;15.80;99.90;;;;;;5006778;28;19924;-67
2023/01/08 13:35:10;;;;;;;;;;;15.90;99.90;;;;;;4947677;28;202510;-69
2023/01/08 13:37:36;;;;;;;;;;;15.00;99.90;;;;;;4997463;28;19973;-68
2023/01/08 13:40:05;;;;;;;;;;;13.70;99.90;;;;;;4974218;28;209029;-68
2023/01/08 13:42:32;;;;;;;;;;;12.90;99.90;;;;;;5029710;28;19925;-68
2023/01/08 13:45:00;;;;;;;;;;;12.10;99.90;;;;;;4971516;28;230110;-69
2023/01/08 13:47:31;;;;;;;;;;;11.40;99.90;;;;;;5006979;28;19931;-68
2023/01/08 13:49:58;;;;;;;;;;;11.20;99.90;;;;;;4963840;28;236350;-69
2023/01/08 13:52:37;;;;;;;;;;;10.80;99.90;;;;;;5007193;28;19936;-67
2023/01/08 13:55:04;;;;;;;;;;;10.40;99.90;;;;;;4952243;28;206019;-68
2023/01/08 13:57:35;;;;;;;;;;;10.50;99.90;;;;;;5027957;28;19925;-69
2023/01/08 14:00:03;;;;;;;;;;;10.60;99.90;;;;;;4961614;28;213385;-68
2023/01/08 14:02:30;;;;;;;;;;;11.10;99.90;;;;;;5024669;28;19932;-68
2023/01/08 14:04:57;;;;;;;;;;;12.60;99.90;;;;;;4956323;28;245200;-68
2023/01/08 14:07:24;;;;;;;;;;;13.30;99.90;;;;;;5010001;28;19929;-68
2023/01/08 14:09:50;;;;;;;;;;;12.40;99.90;;;;;;4965784;28;209404;-68
2023/01/08 14:12:19;;;;;;;;;;;11.40;99.90;;;;;;5027727;28;19932;-68
2023/01/08 14:14:50;;;;;;;;;;;10.70;99.90;;;;;;4956218;28;206279;-69
2023/01/08 14:17:17;;;;;;;;;;;10.40;99.90;;;;;;5010105;28;19924;-68
2023/01/08 14:19:43;;;;;;;;;;;10.20;99.90;;;;;;4980973;28;202889;-68
2023/01/08 14:22:13;;;;;;;;;;;11.00;99.90;;;;;;5024647;28;19929;-67
2023/01/08 14:24:45;;;;;;;;;;;10.80;99.90;;;;;;4983180;28;210033;-70
2023/01/08 14:27:22;;;;;;;;;;;10.70;99.90;;;;;;5025494;28;20284;-68
2023/01/08 14:29:48;;;;;;;;;;;11.70;99.90;;;;;;4956887;28;209624;-67